sensor_id;sensor_type;location;lat;lon;timestamp;temperature;humidity
20700;DHT22;10511;51.232;9.420;2023-03-01T00:00:13;-0.80;99.90
20700;DHT22;10511;51.232;9.420;2023-03-01T00:02:40;-0.80;99.90
20700;DHT22;10511;51.232;9.420;2023-03-01T00:05:07;-0.80;99.90
20700;DHT22;10511;51.232;9.420;2023-03-01T00:07:34;-0.80;99.90
20700;DHT22;10511;51.232;9.420;2023-03-01T00:10:03;-0.80;99.90
20700;DHT22;10511;51.232;9.420;2023-03-01T00:12:31;-0.80;99.90
20700;DHT22;10511;51.232;9.420;2023-03-01T00:14:58;-0.80;99.90
20700;DHT22;10511;51.232;9.420;2023-03-01T00:17:25;-0.90;99.90
20700;DHT22;10511;51.232;9.420;2023-03-01T00:19:51;-0.90;99.90
20700;DHT22;10511;51.232;9.420;2023-03-01T00:22:18;-0.90;99.90
20700;DHT22;10511;51.232;9.420;2023-03-01T00:24:45;-0.90;99.90
20700;DHT22;10511;51.232;9.420;2023-03-01T00:27:13;-1.00;99.90
20700;DHT22;10511;51.232;9.420;2023-03-01T00:29:40;-1.00;99.90
20700;DHT22;10511;51.232;9.420;2023-03-01T00:32:07;-1.00;99.90
20700;DHT22;10511;51.232;9.420;2023-03-01T00:34:34;-1.00;99.90
20700;DHT22;10511;51.232;9.420;2023-03-01T00:37:01;-1.00;99.90
20700;DHT22;10511;51.232;9.420;2023-03-01T00:39:31;-1.10;99.90
20700;DHT22;10511;51.232;9.420;2023-03-01T00:41:58;-1.10;99.90
20700;DHT22;10511;51.232;9.420;2023-03-01T00:44:26;-1.10;99.90
20700;DHT22;10511;51.232;9.420;2023-03-01T00:46:53;-1.10;99.90
20700;DHT22;10511;51.232;9.420;2023-03-01T00:49:20;-1.10;99.90
20700;DHT22;10511;51.232;9.420;2023-03-01T00:51:49;-1.10;99.90
20700;DHT22;10511;51.232;9.420;2023-03-01T00:54:16;-1.20;99.90
20700;DHT22;10511;51.232;9.420;2023-03-01T00:56:43;-1.20;99.90
20700;DHT22;10511;51.232;9.420;2023-03-01T00:59:10;-1.20;99.90
20700;DHT22;10511;51.232;9.420;2023-03-01T01:01:38;-1.20;99.90
20700;DHT22;10511;51.232;9.420;2023-03-01T01:04:06;-1.30;99.90
20700;DHT22;10511;51.232;9.420;2023-03-01T01:06:35;-1.30;99.90
20700;DHT22;10511;51.232;9.420;2023-03-01T01:09:04;-1.30;99.90
20700;DHT22;10511;51.232;9.420;2023-03-01T01:11:32;-1.30;99.90
20700;DHT22;10511;51.232;9.420;2023-03-01T01:14:00;-1.30;99.90
20700;DHT22;10511;51.232;9.420;2023-03-01T01:16:28;-1.30;99.90
20700;DHT22;10511;51.232;9.420;2023-03-01T01:18:57;-1.30;99.90
20700;DHT22;10511;51.232;9.420;2023-03-01T01:21:24;-1.30;99.90
20700;DHT22;10511;51.232;9.420;2023-03-01T01:23:52;-1.40;99.90
20700;DHT22;10511;51.232;9.420;2023-03-01T01:26:21;-1.30;99.90
20700;DHT22;10511;51.232;9.420;2023-03-01T01:28:48;-1.40;99.90
20700;DHT22;10511;51.232;9.420;2023-03-01T01:31:15;-1.40;99.90
20700;DHT22;10511;51.232;9.420;2023-03-01T01:33:42;-1.40;99.90
20700;DHT22;10511;51.232;9.420;2023-03-01T01:36:11;-1.50;99.90
20700;DHT22;10511;51.232;9.420;2023-03-01T01:38:38;-1.50;99.90
20700;DHT22;10511;51.232;9.420;2023-03-01T01:41:08;-1.50;99.90
20700;DHT22;10511;51.232;9.420;2023-03-01T01:43:38;-1.50;99.90
20700;DHT22;10511;51.232;9.420;2023-03-01T01:46:14;-1.50;99.90
20700;DHT22;10511;51.232;9.420;2023-03-01T01:48:44;-1.50;99.90
20700;DHT22;10511;51.232;9.420;2023-03-01T01:51:19;-1.60;99.90
20700;DHT22;10511;51.232;9.420;2023-03-01T01:53:53;-1.60;99.90
20700;DHT22;10511;51.232;9.420;2023-03-01T01:56:21;-1.60;99.90
20700;DHT22;10511;51.232;9.420;2023-03-01T01:58:50;-1.60;99.90
20700;DHT22;10511;51.232;9.420;2023-03-01T02:01:17;-1.60;99.90
20700;DHT22;10511;51.232;9.420;2023-03-01T02:03:46;-1.60;99.90
20700;DHT22;10511;51.232;9.420;2023-03-01T02:06:20;-1.70;99.90
20700;DHT22;10511;51.232;9.420;2023-03-01T02:08:49;-1.70;99.90
20700;DHT22;10511;51.232;9.420;2023-03-01T02:11:19;-1.70;99.90
20700;DHT22;10511;51.232;9.420;2023-03-01T02:13:47;-1.70;99.90
20700;DHT22;10511;51.232;9.420;2023-03-01T02:16:16;-1.70;99.90
20700;DHT22;10511;51.232;9.420;2023-03-01T02:18:44;-1.70;99.90
20700;DHT22;10511;51.232;9.420;2023-03-01T02:21:22;-1.70;99.90
20700;DHT22;10511;51.232;9.420;2023-03-01T02:23:53;-1.60;99.90
20700;DHT22;10511;51.232;9.420;2023-03-01T02:26:27;-1.60;99.90
20700;DHT22;10511;51.232;9.420;2023-03-01T02:28:58;-1.60;99.90
20700;DHT22;10511;51.232;9.420;2023-03-01T02:31:25;-1.60;99.90
20700;DHT22;10511;51.232;9.420;2023-03-01T02:34:13;-1.50;99.90
20700;DHT22;10511;51.232;9.420;2023-03-01T02:36:43;-1.50;99.90
20700;DHT22;10511;51.232;9.420;2023-03-01T02:39:16;-1.50;99.90
20700;DHT22;10511;51.232;9.420;2023-03-01T02:41:46;-1.50;99.90
20700;DHT22;10511;51.232;9.420;2023-03-01T02:44:16;-1.60;99.90
20700;DHT22;10511;51.232;9.420;2023-03-01T02:46:44;-1.60;99.90
20700;DHT22;10511;51.232;9.420;2023-03-01T02:49:20;-1.60;99.90
20700;DHT22;10511;51.232;9.420;2023-03-01T02:54:40;-1.60;99.90
20700;DHT22;10511;51.232;9.420;2023-03-01T02:57:08;-1.70;99.90
20700;DHT22;10511;51.232;9.420;2023-03-01T02:59:38;-1.70;99.90
20700;DHT22;10511;51.232;9.420;2023-03-01T03:02:06;-1.70;99.90
20700;DHT22;10511;51.232;9.420;2023-03-01T03:04:33;-1.70;99.90
20700;DHT22;10511;51.232;9.420;2023-03-01T03:07:00;-1.70;99.90
20700;DHT22;10511;51.232;9.420;2023-03-01T03:09:27;-1.70;99.90
20700;DHT22;10511;51.232;9.420;2023-03-01T03:11:54;-1.80;99.90
20700;DHT22;10511;51.232;9.420;2023-03-01T03:14:21;-1.80;99.90
20700;DHT22;10511;51.232;9.420;2023-03-01T03:16:50;-1.80;99.90
20700;DHT22;10511;51.232;9.420;2023-03-01T03:19:17;-1.80;99.90
20700;DHT22;10511;51.232;9.420;2023-03-01T03:21:45;-1.80;99.90
20700;DHT22;10511;51.232;9.420;2023-03-01T03:24:12;-1.80;99.90
20700;DHT22;10511;51.232;9.420;2023-03-01T03:26:39;-1.90;99.90
20700;DHT22;10511;51.232;9.420;2023-03-01T03:29:06;-1.80;99.90
20700;DHT22;10511;51.232;9.420;2023-03-01T03:31:34;-1.90;99.90
20700;DHT22;10511;51.232;9.420;2023-03-01T03:34:02;-1.90;99.90
20700;DHT22;10511;51.232;9.420;2023-03-01T03:36:29;-1.90;99.90
20700;DHT22;10511;51.232;9.420;2023-03-01T03:38:56;-1.90;99.90
20700;DHT22;10511;51.232;9.420;2023-03-01T03:41:22;-1.90;99.90
20700;DHT22;10511;51.232;9.420;2023-03-01T03:43:49;-1.90;99.90
20700;DHT22;10511;51.232;9.420;2023-03-01T03:46:16;-1.90;99.90
20700;DHT22;10511;51.232;9.420;2023-03-01T03:48:44;-1.90;99.90
20700;DHT22;10511;51.232;9.420;2023-03-01T03:51:15;-1.90;99.90
20700;DHT22;10511;51.232;9.420;2023-03-01T03:53:42;-1.90;99.90
20700;DHT22;10511;51.232;9.420;2023-03-01T03:56:10;-2.00;99.90
20700;DHT22;10511;51.232;9.420;2023-03-01T03:58:38;-2.00;99.90
20700;DHT22;10511;51.232;9.420;2023-03-01T04:01:05;-2.10;99.90
20700;DHT22;10511;51.232;9.420;2023-03-01T04:03:32;-2.10;99.90
20700;DHT22;10511;51.232;9.420;2023-03-01T04:06:01;-2.10;99.90
20700;DHT22;10511;51.232;9.420;2023-03-01T04:08:30;-2.20;99.90
20700;DHT22;10511;51.232;9.420;2023-03-01T04:11:00;-2.20;99.90
20700;DHT22;10511;51.232;9.420;2023-03-01T04:13:47;-2.20;99.90
20700;DHT22;10511;51.232;9.420;2023-03-01T04:16:14;-2.20;99.90
20700;DHT22;10511;51.232;9.420;2023-03-01T04:18:41;-2.20;99.90
20700;DHT22;10511;51.232;9.420;2023-03-01T04:21:07;-2.20;99.90
20700;DHT22;10511;51.232;9.420;2023-03-01T04:23:36;-2.20;99.90
20700;DHT22;10511;51.232;9.420;2023-03-01T04:26:03;-2.20;99.90
20700;DHT22;10511;51.232;9.420;2023-03-01T04:28:33;-2.20;99.90
20700;DHT22;10511;51.232;9.420;2023-03-01T04:31:03;-2.20;99.90
20700;DHT22;10511;51.232;9.420;2023-03-01T04:33:38;-2.30;99.90
20700;DHT22;10511;51.232;9.420;2023-03-01T04:36:06;-2.30;99.90
20700;DHT22;10511;51.232;9.420;2023-03-01T04:38:35;-2.40;99.90
20700;DHT22;10511;51.232;9.420;2023-03-01T04:41:04;-2.30;99.90
20700;DHT22;10511;51.232;9.420;2023-03-01T04:43:31;-2.40;99.90
20700;DHT22;10511;51.232;9.420;2023-03-01T04:46:03;-2.40;99.90
20700;DHT22;10511;51.232;9.420;2023-03-01T04:48:32;-2.40;99.90
20700;DHT22;10511;51.232;9.420;2023-03-01T04:50:59;-2.40;99.90
20700;DHT22;10511;51.232;9.420;2023-03-01T04:53:26;-2.40;99.90
20700;DHT22;10511;51.232;9.420;2023-03-01T04:55:56;-2.40;99.90
20700;DHT22;10511;51.232;9.420;2023-03-01T04:58:23;-2.30;99.90
20700;DHT22;10511;51.232;9.420;2023-03-01T05:00:50;-2.30;99.90
20700;DHT22;10511;51.232;9.420;2023-03-01T05:03:18;-2.30;99.90
20700;DHT22;10511;51.232;9.420;2023-03-01T05:05:46;-2.30;99.90
20700;DHT22;10511;51.232;9.420;2023-03-01T05:08:14;-2.30;99.90
20700;DHT22;10511;51.232;9.420;2023-03-01T05:10:44;-2.30;99.90
20700;DHT22;10511;51.232;9.420;2023-03-01T05:13:14;-2.40;99.90
20700;DHT22;10511;51.232;9.420;2023-03-01T05:15:47;-2.40;99.90
20700;DHT22;10511;51.232;9.420;2023-03-01T05:18:15;-2.40;99.90
20700;DHT22;10511;51.232;9.420;2023-03-01T05:20:42;-2.40;99.90
20700;DHT22;10511;51.232;9.420;2023-03-01T05:23:10;-2.40;99.90
20700;DHT22;10511;51.232;9.420;2023-03-01T05:25:37;-2.40;99.90
20700;DHT22;10511;51.232;9.420;2023-03-01T05:28:06;-2.40;99.90
20700;DHT22;10511;51.232;9.420;2023-03-01T05:30:34;-2.40;99.90
20700;DHT22;10511;51.232;9.420;2023-03-01T05:33:02;-2.40;99.90
20700;DHT22;10511;51.232;9.420;2023-03-01T05:35:29;-2.40;99.90
20700;DHT22;10511;51.232;9.420;2023-03-01T05:37:58;-2.40;99.90
20700;DHT22;10511;51.232;9.420;2023-03-01T05:40:25;-2.40;99.90
20700;DHT22;10511;51.232;9.420;2023-03-01T05:42:53;-2.30;99.90
20700;DHT22;10511;51.232;9.420;2023-03-01T05:45:21;-2.30;99.90
20700;DHT22;10511;51.232;9.420;2023-03-01T05:47:50;-2.30;99.90
20700;DHT22;10511;51.232;9.420;2023-03-01T05:50:19;-2.30;99.90
20700;DHT22;10511;51.232;9.420;2023-03-01T05:52:48;-2.40;99.90
20700;DHT22;10511;51.232;9.420;2023-03-01T05:55:16;-2.40;99.90
20700;DHT22;10511;51.232;9.420;2023-03-01T05:57:43;-2.40;99.90
20700;DHT22;10511;51.232;9.420;2023-03-01T06:00:15;-2.40;99.90
20700;DHT22;10511;51.232;9.420;2023-03-01T06:02:55;-2.40;99.90
20700;DHT22;10511;51.232;9.420;2023-03-01T06:05:23;-2.40;99.90
20700;DHT22;10511;51.232;9.420;2023-03-01T06:07:50;-2.40;99.90
20700;DHT22;10511;51.232;9.420;2023-03-01T06:10:19;-2.40;99.90
20700;DHT22;10511;51.232;9.420;2023-03-01T06:12:47;-2.40;99.90
20700;DHT22;10511;51.232;9.420;2023-03-01T06:15:16;-2.40;99.90
20700;DHT22;10511;51.232;9.420;2023-03-01T06:17:44;-2.40;99.90
20700;DHT22;10511;51.232;9.420;2023-03-01T06:20:15;-2.40;99.90
20700;DHT22;10511;51.232;9.420;2023-03-01T06:22:42;-2.30;99.90
20700;DHT22;10511;51.232;9.420;2023-03-01T06:25:12;-2.30;99.90
20700;DHT22;10511;51.232;9.420;2023-03-01T06:27:40;-2.30;99.90
20700;DHT22;10511;51.232;9.420;2023-03-01T06:30:08;-2.40;99.90
20700;DHT22;10511;51.232;9.420;2023-03-01T06:32:36;-2.30;99.90
20700;DHT22;10511;51.232;9.420;2023-03-01T06:35:03;-2.30;99.90
20700;DHT22;10511;51.232;9.420;2023-03-01T06:37:32;-2.30;99.90
20700;DHT22;10511;51.232;9.420;2023-03-01T06:40:00;-2.30;99.90
20700;DHT22;10511;51.232;9.420;2023-03-01T06:42:33;-2.30;99.90
20700;DHT22;10511;51.232;9.420;2023-03-01T06:45:00;-2.30;99.90
20700;DHT22;10511;51.232;9.420;2023-03-01T06:47:27;-2.20;99.90
20700;DHT22;10511;51.232;9.420;2023-03-01T06:49:54;-2.20;99.90
20700;DHT22;10511;51.232;9.420;2023-03-01T06:52:21;-2.20;99.90
20700;DHT22;10511;51.232;9.420;2023-03-01T06:54:49;-2.20;99.90
20700;DHT22;10511;51.232;9.420;2023-03-01T06:57:16;-2.10;99.90
20700;DHT22;10511;51.232;9.420;2023-03-01T06:59:43;-2.00;99.90
20700;DHT22;10511;51.232;9.420;2023-03-01T07:02:10;-2.00;99.90
20700;DHT22;10511;51.232;9.420;2023-03-01T07:04:37;-2.00;99.90
20700;DHT22;10511;51.232;9.420;2023-03-01T07:07:05;-1.90;99.90
20700;DHT22;10511;51.232;9.420;2023-03-01T07:09:31;-1.80;99.90
20700;DHT22;10511;51.232;9.420;2023-03-01T07:12:00;-1.80;99.90
20700;DHT22;10511;51.232;9.420;2023-03-01T07:14:27;-1.70;99.90
20700;DHT22;10511;51.232;9.420;2023-03-01T07:16:54;-1.70;99.90
20700;DHT22;10511;51.232;9.420;2023-03-01T07:19:21;-1.60;99.90
20700;DHT22;10511;51.232;9.420;2023-03-01T07:21:48;-1.60;99.90
20700;DHT22;10511;51.232;9.420;2023-03-01T07:24:15;-1.60;99.90
20700;DHT22;10511;51.232;9.420;2023-03-01T07:26:42;-1.60;99.90
20700;DHT22;10511;51.232;9.420;2023-03-01T07:29:10;-1.50;99.90
20700;DHT22;10511;51.232;9.420;2023-03-01T07:31:37;-1.50;99.90
20700;DHT22;10511;51.232;9.420;2023-03-01T07:34:04;-1.40;99.90
20700;DHT22;10511;51.232;9.420;2023-03-01T07:36:31;-1.40;99.90
20700;DHT22;10511;51.232;9.420;2023-03-01T07:38:58;-1.30;99.90
20700;DHT22;10511;51.232;9.420;2023-03-01T07:41:27;-1.30;99.90
20700;DHT22;10511;51.232;9.420;2023-03-01T07:43:54;-1.30;99.90
20700;DHT22;10511;51.232;9.420;2023-03-01T07:46:23;-1.30;99.90
20700;DHT22;10511;51.232;9.420;2023-03-01T07:48:50;-1.20;99.90
20700;DHT22;10511;51.232;9.420;2023-03-01T07:51:16;-1.10;99.90
20700;DHT22;10511;51.232;9.420;2023-03-01T07:53:45;-1.10;99.90
20700;DHT22;10511;51.232;9.420;2023-03-01T07:56:14;-1.00;99.90
20700;DHT22;10511;51.232;9.420;2023-03-01T07:58:44;-1.00;99.90
20700;DHT22;10511;51.232;9.420;2023-03-01T08:01:13;-0.90;99.90
20700;DHT22;10511;51.232;9.420;2023-03-01T08:03:42;-0.80;99.90
20700;DHT22;10511;51.232;9.420;2023-03-01T08:06:10;-0.70;99.90
20700;DHT22;10511;51.232;9.420;2023-03-01T08:08:37;-0.60;99.90
20700;DHT22;10511;51.232;9.420;2023-03-01T08:11:06;-0.50;99.90
20700;DHT22;10511;51.232;9.420;2023-03-01T08:13:33;-0.40;99.90
20700;DHT22;10511;51.232;9.420;2023-03-01T08:16:01;-0.30;99.90
20700;DHT22;10511;51.232;9.420;2023-03-01T08:18:28;-0.30;99.90
20700;DHT22;10511;51.232;9.420;2023-03-01T08:21:01;-0.20;99.90
20700;DHT22;10511;51.232;9.420;2023-03-01T08:23:28;-0.20;99.90
20700;DHT22;10511;51.232;9.420;2023-03-01T08:26:02;-0.20;99.90
20700;DHT22;10511;51.232;9.420;2023-03-01T08:28:29;0.00;99.90
20700;DHT22;10511;51.232;9.420;2023-03-01T08:30:56;0.20;99.90
20700;DHT22;10511;51.232;9.420;2023-03-01T08:33:23;0.20;99.90
20700;DHT22;10511;51.232;9.420;2023-03-01T08:35:50;0.30;99.90
20700;DHT22;10511;51.232;9.420;2023-03-01T08:38:18;0.40;99.90
20700;DHT22;10511;51.232;9.420;2023-03-01T08:40:45;0.40;99.90
20700;DHT22;10511;51.232;9.420;2023-03-01T08:43:12;0.50;99.90
20700;DHT22;10511;51.232;9.420;2023-03-01T08:45:39;0.60;99.90
20700;DHT22;10511;51.232;9.420;2023-03-01T08:48:06;0.70;99.90
20700;DHT22;10511;51.232;9.420;2023-03-01T08:50:32;0.90;99.90
20700;DHT22;10511;51.232;9.420;2023-03-01T08:52:59;0.90;99.90
20700;DHT22;10511;51.232;9.420;2023-03-01T08:55:27;0.80;99.90
20700;DHT22;10511;51.232;9.420;2023-03-01T08:57:55;1.00;99.90
20700;DHT22;10511;51.232;9.420;2023-03-01T09:00:24;1.10;99.90
20700;DHT22;10511;51.232;9.420;2023-03-01T09:02:51;1.10;99.90
20700;DHT22;10511;51.232;9.420;2023-03-01T09:05:18;1.30;99.90
20700;DHT22;10511;51.232;9.420;2023-03-01T09:07:45;1.30;99.90
20700;DHT22;10511;51.232;9.420;2023-03-01T09:10:12;1.30;99.90
20700;DHT22;10511;51.232;9.420;2023-03-01T09:12:40;1.50;99.90
20700;DHT22;10511;51.232;9.420;2023-03-01T09:15:08;1.50;99.90
20700;DHT22;10511;51.232;9.420;2023-03-01T09:17:35;1.60;99.90
20700;DHT22;10511;51.232;9.420;2023-03-01T09:20:02;1.60;99.90
20700;DHT22;10511;51.232;9.420;2023-03-01T09:22:32;1.80;99.90
20700;DHT22;10511;51.232;9.420;2023-03-01T09:24:59;1.80;99.90
20700;DHT22;10511;51.232;9.420;2023-03-01T09:27:26;2.00;99.90
20700;DHT22;10511;51.232;9.420;2023-03-01T09:29:54;1.90;99.90
20700;DHT22;10511;51.232;9.420;2023-03-01T09:32:22;2.10;99.90
20700;DHT22;10511;51.232;9.420;2023-03-01T09:34:49;2.30;99.90
20700;DHT22;10511;51.232;9.420;2023-03-01T09:37:34;2.40;99.90
20700;DHT22;10511;51.232;9.420;2023-03-01T09:40:02;2.40;99.90
20700;DHT22;10511;51.232;9.420;2023-03-01T09:42:32;2.60;99.90
20700;DHT22;10511;51.232;9.420;2023-03-01T09:45:03;2.50;99.90
20700;DHT22;10511;51.232;9.420;2023-03-01T09:47:33;2.40;99.90
20700;DHT22;10511;51.232;9.420;2023-03-01T09:50:04;2.60;99.90
20700;DHT22;10511;51.232;9.420;2023-03-01T09:52:37;2.50;99.90
20700;DHT22;10511;51.232;9.420;2023-03-01T09:55:10;2.50;99.90
20700;DHT22;10511;51.232;9.420;2023-03-01T09:57:43;2.60;99.90
20700;DHT22;10511;51.232;9.420;2023-03-01T10:00:22;2.60;99.90
20700;DHT22;10511;51.232;9.420;2023-03-01T10:02:57;2.70;99.90
20700;DHT22;10511;51.232;9.420;2023-03-01T10:05:34;2.80;99.90
20700;DHT22;10511;51.232;9.420;2023-03-01T10:08:19;2.90;99.90
20700;DHT22;10511;51.232;9.420;2023-03-01T10:10:51;3.00;99.90
20700;DHT22;10511;51.232;9.420;2023-03-01T10:13:23;3.00;99.90
20700;DHT22;10511;51.232;9.420;2023-03-01T10:15:55;3.10;99.90
20700;DHT22;10511;51.232;9.420;2023-03-01T10:18:25;3.30;99.90
20700;DHT22;10511;51.232;9.420;2023-03-01T10:20:55;3.50;99.90
20700;DHT22;10511;51.232;9.420;2023-03-01T10:23:23;3.50;99.90
20700;DHT22;10511;51.232;9.420;2023-03-01T10:26:05;3.80;99.90
20700;DHT22;10511;51.232;9.420;2023-03-01T10:28:41;3.90;99.90
20700;DHT22;10511;51.232;9.420;2023-03-01T10:31:15;3.90;99.90
20700;DHT22;10511;51.232;9.420;2023-03-01T10:33:44;3.90;99.90
20700;DHT22;10511;51.232;9.420;2023-03-01T10:36:10;4.20;99.90
20700;DHT22;10511;51.232;9.420;2023-03-01T10:38:48;4.20;99.90
20700;DHT22;10511;51.232;9.420;2023-03-01T10:41:18;4.20;99.90
20700;DHT22;10511;51.232;9.420;2023-03-01T10:43:46;4.20;99.90
20700;DHT22;10511;51.232;9.420;2023-03-01T10:46:26;4.30;99.90
20700;DHT22;10511;51.232;9.420;2023-03-01T10:49:07;4.50;99.90
20700;DHT22;10511;51.232;9.420;2023-03-01T10:51:34;4.50;99.90
20700;DHT22;10511;51.232;9.420;2023-03-01T10:54:01;4.40;99.90
20700;DHT22;10511;51.232;9.420;2023-03-01T10:56:46;4.40;99.90
20700;DHT22;10511;51.232;9.420;2023-03-01T10:59:25;4.50;99.90
20700;DHT22;10511;51.232;9.420;2023-03-01T11:02:16;4.40;99.90
20700;DHT22;10511;51.232;9.420;2023-03-01T11:04:58;4.60;99.90
20700;DHT22;10511;51.232;9.420;2023-03-01T11:07:26;4.70;99.90
20700;DHT22;10511;51.232;9.420;2023-03-01T11:09:53;4.60;99.90
20700;DHT22;10511;51.232;9.420;2023-03-01T11:12:21;4.70;99.90
20700;DHT22;10511;51.232;9.420;2023-03-01T11:14:49;4.70;99.90
20700;DHT22;10511;51.232;9.420;2023-03-01T11:17:21;4.90;99.90
20700;DHT22;10511;51.232;9.420;2023-03-01T11:20:00;4.90;99.90
20700;DHT22;10511;51.232;9.420;2023-03-01T11:22:31;5.00;99.90
20700;DHT22;10511;51.232;9.420;2023-03-01T11:24:59;5.20;99.90
20700;DHT22;10511;51.232;9.420;2023-03-01T11:27:29;5.10;99.90
20700;DHT22;10511;51.232;9.420;2023-03-01T11:29:59;5.10;99.90
20700;DHT22;10511;51.232;9.420;2023-03-01T11:32:34;5.30;99.90
20700;DHT22;10511;51.232;9.420;2023-03-01T11:35:05;5.10;99.90
20700;DHT22;10511;51.232;9.420;2023-03-01T11:37:41;4.90;99.90
20700;DHT22;10511;51.232;9.420;2023-03-01T11:40:13;4.80;99.90
20700;DHT22;10511;51.232;9.420;2023-03-01T11:43:04;5.00;99.90
20700;DHT22;10511;51.232;9.420;2023-03-01T11:45:43;5.10;99.90
20700;DHT22;10511;51.232;9.420;2023-03-01T11:48:28;5.30;99.90
20700;DHT22;10511;51.232;9.420;2023-03-01T11:51:02;5.60;99.90
20700;DHT22;10511;51.232;9.420;2023-03-01T11:53:45;5.60;99.90
20700;DHT22;10511;51.232;9.420;2023-03-01T11:56:21;5.50;99.90
20700;DHT22;10511;51.232;9.420;2023-03-01T11:59:07;5.50;99.90
20700;DHT22;10511;51.232;9.420;2023-03-01T12:01:48;5.70;99.90
20700;DHT22;10511;51.232;9.420;2023-03-01T12:04:46;5.70;99.90
20700;DHT22;10511;51.232;9.420;2023-03-01T12:07:20;6.00;99.90
20700;DHT22;10511;51.232;9.420;2023-03-01T12:10:00;5.60;99.90
20700;DHT22;10511;51.232;9.420;2023-03-01T12:12:48;5.80;99.90
20700;DHT22;10511;51.232;9.420;2023-03-01T12:18:40;5.80;99.90
20700;DHT22;10511;51.232;9.420;2023-03-01T12:21:21;5.80;99.90
20700;DHT22;10511;51.232;9.420;2023-03-01T12:24:24;5.90;99.90
20700;DHT22;10511;51.232;9.420;2023-03-01T12:27:06;5.90;99.90
20700;DHT22;10511;51.232;9.420;2023-03-01T12:29:40;5.80;99.90
20700;DHT22;10511;51.232;9.420;2023-03-01T12:32:21;5.90;99.90
20700;DHT22;10511;51.232;9.420;2023-03-01T12:35:07;5.90;99.90
20700;DHT22;10511;51.232;9.420;2023-03-01T12:37:47;5.80;99.90
20700;DHT22;10511;51.232;9.420;2023-03-01T12:40:42;6.00;99.90
20700;DHT22;10511;51.232;9.420;2023-03-01T12:43:21;6.10;99.90
20700;DHT22;10511;51.232;9.420;2023-03-01T12:46:04;6.10;99.90
20700;DHT22;10511;51.232;9.420;2023-03-01T12:48:40;6.20;99.90
20700;DHT22;10511;51.232;9.420;2023-03-01T12:51:13;5.80;99.90
20700;DHT22;10511;51.232;9.420;2023-03-01T12:53:45;6.00;99.90
20700;DHT22;10511;51.232;9.420;2023-03-01T12:56:16;5.80;99.90
20700;DHT22;10511;51.232;9.420;2023-03-01T12:58:52;5.80;99.90
20700;DHT22;10511;51.232;9.420;2023-03-01T13:01:26;6.20;99.90
20700;DHT22;10511;51.232;9.420;2023-03-01T13:04:08;6.40;99.90
20700;DHT22;10511;51.232;9.420;2023-03-01T13:06:44;6.30;99.90
20700;DHT22;10511;51.232;9.420;2023-03-01T13:09:20;6.20;99.90
20700;DHT22;10511;51.232;9.420;2023-03-01T13:11:51;6.30;99.90
20700;DHT22;10511;51.232;9.420;2023-03-01T13:14:37;6.30;99.90
20700;DHT22;10511;51.232;9.420;2023-03-01T13:17:40;6.20;99.90
20700;DHT22;10511;51.232;9.420;2023-03-01T13:20:17;6.10;99.90
20700;DHT22;10511;51.232;9.420;2023-03-01T13:22:45;5.80;99.90
20700;DHT22;10511;51.232;9.420;2023-03-01T13:25:16;6.00;99.90
20700;DHT22;10511;51.232;9.420;2023-03-01T13:27:44;5.70;99.90
20700;DHT22;10511;51.232;9.420;2023-03-01T13:30:40;6.00;99.90
20700;DHT22;10511;51.232;9.420;2023-03-01T13:33:45;5.90;99.90
20700;DHT22;10511;51.232;9.420;2023-03-01T13:36:45;6.00;99.90
20700;DHT22;10511;51.232;9.420;2023-03-01T13:39:28;6.00;99.90
20700;DHT22;10511;51.232;9.420;2023-03-01T13:41:59;5.80;99.90
20700;DHT22;10511;51.232;9.420;2023-03-01T13:44:33;6.00;99.90
20700;DHT22;10511;51.232;9.420;2023-03-01T13:47:07;6.10;99.90
20700;DHT22;10511;51.232;9.420;2023-03-01T13:49:46;6.00;99.50
20700;DHT22;10511;51.232;9.420;2023-03-01T13:52:30;5.90;99.80
20700;DHT22;10511;51.232;9.420;2023-03-01T13:54:59;5.90;99.90
20700;DHT22;10511;51.232;9.420;2023-03-01T13:57:32;5.80;99.90
20700;DHT22;10511;51.232;9.420;2023-03-01T14:00:00;5.90;99.60
20700;DHT22;10511;51.232;9.420;2023-03-01T14:02:27;5.90;99.30
20700;DHT22;10511;51.232;9.420;2023-03-01T14:04:57;5.80;99.90
20700;DHT22;10511;51.232;9.420;2023-03-01T14:07:25;5.80;99.40
20700;DHT22;10511;51.232;9.420;2023-03-01T14:09:55;5.80;99.70
20700;DHT22;10511;51.232;9.420;2023-03-01T14:12:33;5.80;99.90
20700;DHT22;10511;51.232;9.420;2023-03-01T14:15:13;5.90;99.90
20700;DHT22;10511;51.232;9.420;2023-03-01T14:17:47;5.90;99.80
20700;DHT22;10511;51.232;9.420;2023-03-01T14:20:20;5.90;99.00
20700;DHT22;10511;51.232;9.420;2023-03-01T14:22:49;5.80;98.00
20700;DHT22;10511;51.232;9.420;2023-03-01T14:25:22;5.80;97.30
20700;DHT22;10511;51.232;9.420;2023-03-01T14:28:00;5.80;97.70
20700;DHT22;10511;51.232;9.420;2023-03-01T14:30:33;5.80;98.10
20700;DHT22;10511;51.232;9.420;2023-03-01T14:33:01;5.80;97.50
20700;DHT22;10511;51.232;9.420;2023-03-01T14:35:30;5.70;96.80
20700;DHT22;10511;51.232;9.420;2023-03-01T14:37:58;5.80;97.70
20700;DHT22;10511;51.232;9.420;2023-03-01T14:40:26;5.80;97.20
20700;DHT22;10511;51.232;9.420;2023-03-01T14:42:55;5.80;98.00
20700;DHT22;10511;51.232;9.420;2023-03-01T14:45:26;5.70;97.40
20700;DHT22;10511;51.232;9.420;2023-03-01T14:47:54;5.70;97.30
20700;DHT22;10511;51.232;9.420;2023-03-01T14:50:25;5.80;97.70
20700;DHT22;10511;51.232;9.420;2023-03-01T14:52:54;5.70;97.90
20700;DHT22;10511;51.232;9.420;2023-03-01T14:55:26;5.70;98.00
20700;DHT22;10511;51.232;9.420;2023-03-01T14:57:53;5.80;98.40
20700;DHT22;10511;51.232;9.420;2023-03-01T15:00:24;5.90;98.30
20700;DHT22;10511;51.232;9.420;2023-03-01T15:02:53;5.90;97.90
20700;DHT22;10511;51.232;9.420;2023-03-01T15:05:25;5.90;97.80
20700;DHT22;10511;51.232;9.420;2023-03-01T15:07:54;5.80;97.70
20700;DHT22;10511;51.232;9.420;2023-03-01T15:10:23;5.80;97.70
20700;DHT22;10511;51.232;9.420;2023-03-01T15:12:50;5.70;98.30
20700;DHT22;10511;51.232;9.420;2023-03-01T15:15:35;5.70;98.40
20700;DHT22;10511;51.232;9.420;2023-03-01T15:18:05;5.70;98.10
20700;DHT22;10511;51.232;9.420;2023-03-01T15:20:33;5.60;98.10
20700;DHT22;10511;51.232;9.420;2023-03-01T15:23:02;5.60;98.00
20700;DHT22;10511;51.232;9.420;2023-03-01T15:25:31;5.70;98.30
20700;DHT22;10511;51.232;9.420;2023-03-01T15:28:00;5.70;97.80
20700;DHT22;10511;51.232;9.420;2023-03-01T15:30:30;5.70;97.80
20700;DHT22;10511;51.232;9.420;2023-03-01T15:33:29;5.60;97.60
20700;DHT22;10511;51.232;9.420;2023-03-01T15:35:57;5.50;97.80
20700;DHT22;10511;51.232;9.420;2023-03-01T15:38:36;5.50;97.80
20700;DHT22;10511;51.232;9.420;2023-03-01T15:41:25;5.50;97.60
20700;DHT22;10511;51.232;9.420;2023-03-01T15:43:54;5.50;97.80
20700;DHT22;10511;51.232;9.420;2023-03-01T15:46:29;5.50;97.80
20700;DHT22;10511;51.232;9.420;2023-03-01T15:49:01;5.50;98.00
20700;DHT22;10511;51.232;9.420;2023-03-01T15:51:31;5.50;98.60
20700;DHT22;10511;51.232;9.420;2023-03-01T15:54:00;5.50;98.20
20700;DHT22;10511;51.232;9.420;2023-03-01T15:56:27;5.50;98.30
20700;DHT22;10511;51.232;9.420;2023-03-01T15:58:58;5.50;98.60
20700;DHT22;10511;51.232;9.420;2023-03-01T16:01:26;5.40;98.60
20700;DHT22;10511;51.232;9.420;2023-03-01T16:03:54;5.40;98.10
20700;DHT22;10511;51.232;9.420;2023-03-01T16:06:23;5.30;98.30